sensor_id;sensor_type;location;lat;lon;timestamp;pressure;altitude;pressure_sealevel;temperature;humidity
78121;BME280;67585;44.802;10.332;2024-02-21T00:00:37;101991.63;;;10.26;nan
78121;BME280;67585;44.802;10.332;2024-02-21T00:03:04;101963.28;;;10.24;nan
78121;BME280;67585;44.802;10.332;2024-02-21T00:05:30;101971.28;;;10.37;nan
78121;BME280;67585;44.802;10.332;2024-02-21T00:07:55;101971.81;;;10.21;nan
78121;BME280;67585;44.802;10.332;2024-02-21T00:10:21;101964.66;;;10.33;nan
78121;BME280;67585;44.802;10.332;2024-02-21T00:12:46;101985.78;;;10.55;nan
78121;BME280;67585;44.802;10.332;2024-02-21T00:15:12;101895.94;;;9.87;nan
78121;BME280;67585;44.802;10.332;2024-02-21T00:17:37;101978.81;;;10.29;nan
78121;BME280;67585;44.802;10.332;2024-02-21T00:20:03;101966.56;;;10.26;nan
78121;BME280;67585;44.802;10.332;2024-02-21T00:22:28;101988.94;;;10.08;nan
78121;BME280;67585;44.802;10.332;2024-02-21T00:24:56;101978.16;;;10.08;nan
78121;BME280;67585;44.802;10.332;2024-02-21T00:27:23;101990.88;;;10.19;nan
78121;BME280;67585;44.802;10.332;2024-02-21T00:29:48;101983.38;;;10.28;nan
78121;BME280;67585;44.802;10.332;2024-02-21T00:32:14;101989.69;;;10.15;nan
78121;BME280;67585;44.802;10.332;2024-02-21T00:34:39;101983.69;;;10.13;nan
78121;BME280;67585;44.802;10.332;2024-02-21T00:37:05;101985.94;;;10.16;nan
78121;BME280;67585;44.802;10.332;2024-02-21T00:39:31;101973.81;;;10.07;nan
78121;BME280;67585;44.802;10.332;2024-02-21T00:41:56;101983.50;;;10.15;nan
78121;BME280;67585;44.802;10.332;2024-02-21T00:44:21;101985.50;;;10.19;nan
78121;BME280;67585;44.802;10.332;2024-02-21T00:46:47;101970.34;;;10.00;nan
78121;BME280;67585;44.802;10.332;2024-02-21T00:49:12;101987.38;;;10.19;nan
78121;BME280;67585;44.802;10.332;2024-02-21T00:51:38;101981.47;;;10.10;nan
78121;BME280;67585;44.802;10.332;2024-02-21T00:54:03;101955.97;;;9.88;nan
78121;BME280;67585;44.802;10.332;2024-02-21T00:56:28;101978.16;;;10.08;nan
78121;BME280;67585;44.802;10.332;2024-02-21T00:58:55;101979.13;;;9.95;nan
78121;BME280;67585;44.802;10.332;2024-02-21T01:01:22;101995.06;;;9.90;nan
78121;BME280;67585;44.802;10.332;2024-02-21T01:03:49;101996.69;;;9.98;nan
78121;BME280;67585;44.802;10.332;2024-02-21T01:06:14;101985.38;;;9.89;nan
78121;BME280;67585;44.802;10.332;2024-02-21T01:08:40;101989.13;;;9.88;nan
78121;BME280;67585;44.802;10.332;2024-02-21T01:11:05;101964.50;;;9.59;nan
78121;BME280;67585;44.802;10.332;2024-02-21T01:13:31;101984.94;;;9.67;nan
78121;BME280;67585;44.802;10.332;2024-02-21T01:15:56;101975.09;;;9.79;nan
78121;BME280;67585;44.802;10.332;2024-02-21T01:18:21;101971.31;;;9.62;nan
78121;BME280;67585;44.802;10.332;2024-02-21T01:20:47;101994.16;;;10.03;nan
78121;BME280;67585;44.802;10.332;2024-02-21T01:23:12;101969.38;;;9.94;nan
78121;BME280;67585;44.802;10.332;2024-02-21T01:25:38;101992.88;;;10.31;nan
78121;BME280;67585;44.802;10.332;2024-02-21T01:28:03;101996.09;;;9.96;nan
78121;BME280;67585;44.802;10.332;2024-02-21T01:30:29;101994.31;;;10.08;nan
78121;BME280;67585;44.802;10.332;2024-02-21T01:32:54;101993.34;;;10.02;nan
78121;BME280;67585;44.802;10.332;2024-02-21T01:35:20;101994.06;;;10.10;nan
78121;BME280;67585;44.802;10.332;2024-02-21T01:37:45;101969.66;;;9.86;nan
78121;BME280;67585;44.802;10.332;2024-02-21T01:40:11;101961.75;;;9.91;nan
78121;BME280;67585;44.802;10.332;2024-02-21T01:42:39;101975.03;;;10.11;nan
78121;BME280;67585;44.802;10.332;2024-02-21T01:45:08;101964.50;;;9.84;nan
78121;BME280;67585;44.802;10.332;2024-02-21T01:47:34;101949.00;;;9.80;nan
78121;BME280;67585;44.802;10.332;2024-02-21T01:50:00;101968.84;;;9.86;nan
78121;BME280;67585;44.802;10.332;2024-02-21T01:52:27;101978.84;;;9.78;nan
78121;BME280;67585;44.802;10.332;2024-02-21T01:54:52;101986.31;;;9.76;nan
78121;BME280;67585;44.802;10.332;2024-02-21T01:57:18;101988.81;;;9.96;nan
78121;BME280;67585;44.802;10.332;2024-02-21T01:59:43;101981.88;;;9.89;nan
78121;BME280;67585;44.802;10.332;2024-02-21T02:02:09;101975.09;;;9.79;nan
78121;BME280;67585;44.802;10.332;2024-02-21T02:04:34;101969.34;;;9.76;nan
78121;BME280;67585;44.802;10.332;2024-02-21T02:07:02;101941.03;;;9.41;nan
78121;BME280;67585;44.802;10.332;2024-02-21T02:09:30;101971.84;;;9.46;nan
78121;BME280;67585;44.802;10.332;2024-02-21T02:11:55;101978.81;;;9.53;nan
78121;BME280;67585;44.802;10.332;2024-02-21T02:14:20;101975.41;;;9.39;nan
78121;BME280;67585;44.802;10.332;2024-02-21T02:16:46;101944.34;;;9.44;nan
78121;BME280;67585;44.802;10.332;2024-02-21T02:19:13;101955.00;;;9.57;nan
78121;BME280;67585;44.802;10.332;2024-02-21T02:21:40;101970.50;;;9.61;nan
78121;BME280;67585;44.802;10.332;2024-02-21T02:24:07;101965.38;;;9.53;nan
78121;BME280;67585;44.802;10.332;2024-02-21T02:26:33;101937.16;;;9.37;nan
78121;BME280;67585;44.802;10.332;2024-02-21T02:28:58;101950.94;;;9.16;nan
78121;BME280;67585;44.802;10.332;2024-02-21T02:31:23;101955.97;;;9.06;nan
78121;BME280;67585;44.802;10.332;2024-02-21T02:33:49;101942.91;;;8.71;nan
78121;BME280;67585;44.802;10.332;2024-02-21T02:36:15;101935.28;;;9.06;nan
78121;BME280;67585;44.802;10.332;2024-02-21T02:38:40;101942.00;;;9.22;nan
78121;BME280;67585;44.802;10.332;2024-02-21T02:41:05;101948.69;;;9.13;nan
78121;BME280;67585;44.802;10.332;2024-02-21T02:43:31;101942.78;;;9.29;nan
78121;BME280;67585;44.802;10.332;2024-02-21T02:45:56;101936.41;;;8.92;nan
78121;BME280;67585;44.802;10.332;2024-02-21T02:48:22;101935.75;;;8.96;nan
78121;BME280;67585;44.802;10.332;2024-02-21T02:50:47;101931.69;;;8.87;nan
78121;BME280;67585;44.802;10.332;2024-02-21T02:53:14;101915.84;;;8.72;nan
78121;BME280;67585;44.802;10.332;2024-02-21T02:55:40;101910.69;;;8.71;nan
78121;BME280;67585;44.802;10.332;2024-02-21T02:58:05;101937.09;;;9.12;nan
78121;BME280;67585;44.802;10.332;2024-02-21T03:00:30;101921.63;;;9.08;nan
78121;BME280;67585;44.802;10.332;2024-02-21T03:02:56;101945.53;;;9.23;nan
78121;BME280;67585;44.802;10.332;2024-02-21T03:05:21;101885.00;;;8.82;nan
78121;BME280;67585;44.802;10.332;2024-02-21T03:07:47;101933.25;;;9.02;nan
78121;BME280;67585;44.802;10.332;2024-02-21T03:10:13;101936.75;;;9.02;nan
78121;BME280;67585;44.802;10.332;2024-02-21T03:12:39;101938.19;;;9.05;nan
78121;BME280;67585;44.802;10.332;2024-02-21T03:15:05;101940.63;;;9.13;nan
78121;BME280;67585;44.802;10.332;2024-02-21T03:17:32;101947.91;;;9.06;nan
78121;BME280;67585;44.802;10.332;2024-02-21T03:19:59;101946.88;;;9.07;nan
78121;BME280;67585;44.802;10.332;2024-02-21T03:22:25;101944.94;;;9.20;nan
78121;BME280;67585;44.802;10.332;2024-02-21T03:24:50;101945.81;;;9.08;nan
78121;BME280;67585;44.802;10.332;2024-02-21T03:27:16;101943.81;;;8.96;nan
78121;BME280;67585;44.802;10.332;2024-02-21T03:29:41;101937.81;;;9.01;nan
78121;BME280;67585;44.802;10.332;2024-02-21T03:32:07;101958.41;;;9.14;nan
78121;BME280;67585;44.802;10.332;2024-02-21T03:34:32;101939.47;;;8.95;nan
78121;BME280;67585;44.802;10.332;2024-02-21T03:36:57;101956.16;;;9.11;nan
78121;BME280;67585;44.802;10.332;2024-02-21T03:39:24;101947.94;;;8.99;nan
78121;BME280;67585;44.802;10.332;2024-02-21T03:41:49;101958.69;;;8.99;nan
78121;BME280;67585;44.802;10.332;2024-02-21T03:44:14;101958.97;;;8.84;nan
78121;BME280;67585;44.802;10.332;2024-02-21T03:46:40;101946.19;;;8.80;nan
78121;BME280;67585;44.802;10.332;2024-02-21T03:49:05;101932.41;;;8.63;nan
78121;BME280;67585;44.802;10.332;2024-02-21T03:51:31;101945.19;;;8.74;nan
78121;BME280;67585;44.802;10.332;2024-02-21T03:53:56;101971.38;;;8.85;nan
78121;BME280;67585;44.802;10.332;2024-02-21T03:56:22;101951.94;;;8.83;nan
78121;BME280;67585;44.802;10.332;2024-02-21T03:58:47;101965.88;;;9.05;nan
78121;BME280;67585;44.802;10.332;2024-02-21T04:01:15;101961.50;;;8.79;nan
78121;BME280;67585;44.802;10.332;2024-02-21T04:03:40;101960.25;;;8.82;nan
78121;BME280;67585;44.802;10.332;2024-02-21T04:06:05;101971.38;;;8.85;nan
78121;BME280;67585;44.802;10.332;2024-02-21T04:08:31;101967.88;;;8.85;nan
78121;BME280;67585;44.802;10.332;2024-02-21T04:10:56;101967.13;;;9.03;nan
78121;BME280;67585;44.802;10.332;2024-02-21T04:13:21;101964.75;;;8.88;nan
78121;BME280;67585;44.802;10.332;2024-02-21T04:15:48;101944.78;;;8.64;nan
78121;BME280;67585;44.802;10.332;2024-02-21T04:18:13;101943.09;;;8.76;nan
78121;BME280;67585;44.802;10.332;2024-02-21T04:20:40;101964.59;;;8.76;nan
78121;BME280;67585;44.802;10.332;2024-02-21T04:23:05;101938.00;;;8.61;nan
78121;BME280;67585;44.802;10.332;2024-02-21T04:25:30;101966.44;;;8.82;nan
78121;BME280;67585;44.802;10.332;2024-02-21T04:27:56;101944.28;;;8.87;nan
78121;BME280;67585;44.802;10.332;2024-02-21T04:30:21;101951.06;;;8.96;nan
78121;BME280;67585;44.802;10.332;2024-02-21T04:32:46;101966.34;;;8.95;nan
78121;BME280;67585;44.802;10.332;2024-02-21T04:35:12;101946.28;;;8.98;nan
78121;BME280;67585;44.802;10.332;2024-02-21T04:37:37;101951.16;;;8.76;nan
78121;BME280;67585;44.802;10.332;2024-02-21T04:40:03;101937.97;;;8.68;nan
78121;BME280;67585;44.802;10.332;2024-02-21T04:42:28;101953.88;;;8.69;nan
78121;BME280;67585;44.802;10.332;2024-02-21T04:44:54;101976.31;;;8.88;nan
78121;BME280;67585;44.802;10.332;2024-02-21T04:47:19;101982.72;;;8.87;nan
78121;BME280;67585;44.802;10.332;2024-02-21T04:49:48;101968.59;;;8.53;nan
78121;BME280;67585;44.802;10.332;2024-02-21T04:52:14;101976.50;;;8.93;nan
78121;BME280;67585;44.802;10.332;2024-02-21T04:54:39;101980.63;;;8.96;nan
78121;BME280;67585;44.802;10.332;2024-02-21T04:57:05;101992.63;;;8.93;nan
78121;BME280;67585;44.802;10.332;2024-02-21T04:59:30;101974.50;;;8.75;nan
78121;BME280;67585;44.802;10.332;2024-02-21T05:01:56;101991.59;;;8.88;nan
78121;BME280;67585;44.802;10.332;2024-02-21T05:04:21;101962.41;;;8.60;nan
78121;BME280;67585;44.802;10.332;2024-02-21T05:06:46;101957.69;;;8.48;nan
78121;BME280;67585;44.802;10.332;2024-02-21T05:09:12;101971.44;;;8.72;nan
78121;BME280;67585;44.802;10.332;2024-02-21T05:11:37;101966.09;;;8.65;nan
78121;BME280;67585;44.802;10.332;2024-02-21T05:14:03;101962.34;;;8.66;nan
78121;BME280;67585;44.802;10.332;2024-02-21T05:16:29;101986.22;;;8.88;nan
78121;BME280;67585;44.802;10.332;2024-02-21T05:18:55;101959.13;;;8.44;nan
78121;BME280;67585;44.802;10.332;2024-02-21T05:21:22;101970.28;;;8.41;nan
78121;BME280;67585;44.802;10.332;2024-02-21T05:23:49;101978.31;;;8.54;nan
78121;BME280;67585;44.802;10.332;2024-02-21T05:26:20;101980.63;;;8.38;nan
78121;BME280;67585;44.802;10.332;2024-02-21T05:28:46;101987.19;;;8.55;nan
78121;BME280;67585;44.802;10.332;2024-02-21T05:31:12;101982.66;;;8.49;nan
78121;BME280;67585;44.802;10.332;2024-02-21T05:33:37;101941.78;;;8.27;nan
78121;BME280;67585;44.802;10.332;2024-02-21T05:36:02;101932.75;;;8.21;nan
78121;BME280;67585;44.802;10.332;2024-02-21T05:38:28;101965.28;;;8.58;nan
78121;BME280;67585;44.802;10.332;2024-02-21T05:40:53;101969.88;;;8.31;nan
78121;BME280;67585;44.802;10.332;2024-02-21T05:43:19;101975.03;;;8.46;nan
78121;BME280;67585;44.802;10.332;2024-02-21T05:45:44;101975.25;;;8.38;nan
78121;BME280;67585;44.802;10.332;2024-02-21T05:48:09;101968.63;;;8.33;nan
78121;BME280;67585;44.802;10.332;2024-02-21T05:50:38;101990.50;;;8.37;nan
78121;BME280;67585;44.802;10.332;2024-02-21T05:53:03;101978.53;;;8.40;nan
78121;BME280;67585;44.802;10.332;2024-02-21T05:55:29;101973.00;;;8.21;nan
78121;BME280;67585;44.802;10.332;2024-02-21T05:57:54;101976.06;;;8.25;nan
78121;BME280;67585;44.802;10.332;2024-02-21T06:00:22;101986.00;;;8.31;nan
78121;BME280;67585;44.802;10.332;2024-02-21T06:02:48;101977.31;;;8.35;nan
78121;BME280;67585;44.802;10.332;2024-02-21T06:05:13;101961.81;;;8.38;nan
78121;BME280;67585;44.802;10.332;2024-02-21T06:07:38;101967.59;;;8.41;nan
78121;BME280;67585;44.802;10.332;2024-02-21T06:10:06;101967.19;;;8.31;nan
78121;BME280;67585;44.802;10.332;2024-02-21T06:12:32;101957.47;;;8.30;nan
78121;BME280;67585;44.802;10.332;2024-02-21T06:14:57;101988.66;;;8.38;nan
78121;BME280;67585;44.802;10.332;2024-02-21T06:17:23;101962.84;;;8.37;nan
78121;BME280;67585;44.802;10.332;2024-02-21T06:19:48;101990.72;;;8.42;nan
78121;BME280;67585;44.802;10.332;2024-02-21T06:22:14;101982.69;;;8.35;nan
78121;BME280;67585;44.802;10.332;2024-02-21T06:24:39;101983.50;;;8.36;nan
78121;BME280;67585;44.802;10.332;2024-02-21T06:27:05;101960.59;;;8.20;nan
78121;BME280;67585;44.802;10.332;2024-02-21T06:29:34;101926.59;;;7.94;nan
78121;BME280;67585;44.802;10.332;2024-02-21T06:32:00;102012.63;;;8.46;nan
78121;BME280;67585;44.802;10.332;2024-02-21T06:34:25;101889.28;;;7.59;nan
78121;BME280;67585;44.802;10.332;2024-02-21T06:36:51;101922.28;;;7.80;nan
78121;BME280;67585;44.802;10.332;2024-02-21T06:39:17;101917.34;;;7.70;nan
78121;BME280;67585;44.802;10.332;2024-02-21T06:41:42;101937.75;;;7.64;nan
78121;BME280;67585;44.802;10.332;2024-02-21T06:44:08;102012.63;;;8.19;nan
78121;BME280;67585;44.802;10.332;2024-02-21T06:46:34;102017.97;;;8.32;nan
78121;BME280;67585;44.802;10.332;2024-02-21T06:49:00;101993.66;;;8.14;nan
78121;BME280;67585;44.802;10.332;2024-02-21T06:51:26;101998.16;;;8.27;nan
78121;BME280;67585;44.802;10.332;2024-02-21T06:53:54;102021.72;;;8.31;nan
78121;BME280;67585;44.802;10.332;2024-02-21T06:56:20;102024.19;;;8.26;nan
78121;BME280;67585;44.802;10.332;2024-02-21T06:58:45;101980.25;;;8.07;nan
78121;BME280;67585;44.802;10.332;2024-02-21T07:01:14;102027.72;;;8.40;nan
78121;BME280;67585;44.802;10.332;2024-02-21T07:03:39;102007.69;;;8.09;nan
78121;BME280;67585;44.802;10.332;2024-02-21T07:06:05;101948.28;;;7.73;nan
78121;BME280;67585;44.802;10.332;2024-02-21T07:08:31;101998.44;;;7.92;nan
78121;BME280;67585;44.802;10.332;2024-02-21T07:10:56;101905.16;;;7.54;nan
78121;BME280;67585;44.802;10.332;2024-02-21T07:13:21;102001.91;;;8.26;nan
78121;BME280;67585;44.802;10.332;2024-02-21T07:15:48;102003.94;;;8.37;nan
78121;BME280;67585;44.802;10.332;2024-02-21T07:18:13;102002.25;;;8.56;nan
78121;BME280;67585;44.802;10.332;2024-02-21T07:20:39;102031.16;;;8.67;nan
78121;BME280;67585;44.802;10.332;2024-02-21T07:23:06;102038.25;;;8.42;nan
78121;BME280;67585;44.802;10.332;2024-02-21T07:25:34;101997.34;;;8.40;nan
78121;BME280;67585;44.802;10.332;2024-02-21T07:27:59;102038.81;;;8.64;nan
78121;BME280;67585;44.802;10.332;2024-02-21T07:30:25;102029.75;;;8.58;nan
78121;BME280;67585;44.802;10.332;2024-02-21T07:32:50;102031.59;;;8.64;nan
78121;BME280;67585;44.802;10.332;2024-02-21T07:35:17;102026.22;;;8.64;nan
78121;BME280;67585;44.802;10.332;2024-02-21T07:37:43;102016.13;;;8.53;nan
78121;BME280;67585;44.802;10.332;2024-02-21T07:40:16;101999.31;;;8.71;nan
78121;BME280;67585;44.802;10.332;2024-02-21T07:42:42;102045.50;;;8.99;nan
78121;BME280;67585;44.802;10.332;2024-02-21T07:45:08;102036.53;;;9.19;nan
78121;BME280;67585;44.802;10.332;2024-02-21T07:47:35;102051.69;;;9.52;nan
78121;BME280;67585;44.802;10.332;2024-02-21T07:50:01;102054.28;;;9.65;nan
78121;BME280;67585;44.802;10.332;2024-02-21T07:52:27;102047.44;;;9.69;nan
78121;BME280;67585;44.802;10.332;2024-02-21T07:54:53;102043.97;;;9.87;nan
78121;BME280;67585;44.802;10.332;2024-02-21T07:57:18;102044.25;;;9.79;nan
78121;BME280;67585;44.802;10.332;2024-02-21T07:59:44;102036.22;;;9.97;nan
78121;BME280;67585;44.802;10.332;2024-02-21T08:02:09;102021.41;;;9.88;nan
78121;BME280;67585;44.802;10.332;2024-02-21T08:04:35;102060.16;;;10.12;nan
78121;BME280;67585;44.802;10.332;2024-02-21T08:07:01;102014.94;;;10.14;nan
78121;BME280;67585;44.802;10.332;2024-02-21T08:09:28;102016.91;;;10.51;nan
78121;BME280;67585;44.802;10.332;2024-02-21T08:11:56;102056.22;;;10.77;nan
78121;BME280;67585;44.802;10.332;2024-02-21T08:14:22;102062.06;;;10.74;nan
78121;BME280;67585;44.802;10.332;2024-02-21T08:16:48;102066.56;;;11.28;nan
78121;BME280;67585;44.802;10.332;2024-02-21T08:19:13;102049.94;;;11.31;nan
78121;BME280;67585;44.802;10.332;2024-02-21T08:21:39;102047.66;;;11.47;nan
78121;BME280;67585;44.802;10.332;2024-02-21T08:24:04;102043.63;;;11.68;nan
78121;BME280;67585;44.802;10.332;2024-02-21T08:26:30;102075.44;;;12.19;nan
78121;BME280;67585;44.802;10.332;2024-02-21T08:28:56;102032.44;;;12.30;nan
78121;BME280;67585;44.802;10.332;2024-02-21T08:31:25;102064.84;;;12.77;nan
78121;BME280;67585;44.802;10.332;2024-02-21T08:33:57;102079.97;;;13.01;nan
78121;BME280;67585;44.802;10.332;2024-02-21T08:36:27;102065.38;;;12.91;nan
78121;BME280;67585;44.802;10.332;2024-02-21T08:38:52;101976.88;;;11.98;nan
78121;BME280;67585;44.802;10.332;2024-02-21T08:41:18;102031.03;;;12.51;nan
78121;BME280;67585;44.802;10.332;2024-02-21T08:43:43;102067.13;;;13.09;nan
78121;BME280;67585;44.802;10.332;2024-02-21T08:46:08;102060.13;;;12.84;nan
78121;BME280;67585;44.802;10.332;2024-02-21T08:48:34;102065.28;;;12.74;nan
78121;BME280;67585;44.802;10.332;2024-02-21T08:51:00;102047.22;;;12.74;nan
78121;BME280;67585;44.802;10.332;2024-02-21T08:53:26;102039.91;;;12.75;nan
78121;BME280;67585;44.802;10.332;2024-02-21T08:55:51;102049.88;;;12.86;nan
78121;BME280;67585;44.802;10.332;2024-02-21T08:58:17;102036.50;;;13.08;nan
78121;BME280;67585;44.802;10.332;2024-02-21T09:00:43;102040.81;;;12.92;nan
78121;BME280;67585;44.802;10.332;2024-02-21T09:03:08;102050.56;;;12.93;nan
78121;BME280;67585;44.802;10.332;2024-02-21T09:05:33;102043.88;;;13.24;nan
78121;BME280;67585;44.802;10.332;2024-02-21T09:08:00;102069.63;;;13.84;nan
78121;BME280;67585;44.802;10.332;2024-02-21T09:10:25;102049.50;;;13.80;nan
78121;BME280;67585;44.802;10.332;2024-02-21T09:12:51;101971.13;;;13.11;nan
78121;BME280;67585;44.802;10.332;2024-02-21T09:15:16;102056.75;;;13.46;nan
78121;BME280;67585;44.802;10.332;2024-02-21T09:17:45;102054.63;;;13.48;nan
78121;BME280;67585;44.802;10.332;2024-02-21T09:20:10;102008.69;;;13.24;nan
78121;BME280;67585;44.802;10.332;2024-02-21T09:22:37;102042.38;;;14.08;nan
78121;BME280;67585;44.802;10.332;2024-02-21T09:25:05;102055.41;;;14.45;nan
78121;BME280;67585;44.802;10.332;2024-02-21T09:27:31;102045.31;;;14.79;nan
78121;BME280;67585;44.802;10.332;2024-02-21T09:29:56;102005.00;;;14.49;nan
78121;BME280;67585;44.802;10.332;2024-02-21T09:32:25;102038.59;;;15.09;nan
78121;BME280;67585;44.802;10.332;2024-02-21T09:34:50;102013.19;;;14.93;nan
78121;BME280;67585;44.802;10.332;2024-02-21T09:37:15;101955.47;;;14.75;nan
78121;BME280;67585;44.802;10.332;2024-02-21T09:39:41;102029.66;;;15.08;nan
78121;BME280;67585;44.802;10.332;2024-02-21T09:42:06;102021.41;;;15.25;nan
78121;BME280;67585;44.802;10.332;2024-02-21T09:44:38;102005.59;;;15.17;nan
78121;BME280;67585;44.802;10.332;2024-02-21T09:47:17;102005.88;;;15.21;nan
78121;BME280;67585;44.802;10.332;2024-02-21T09:49:45;102021.97;;;15.27;nan
78121;BME280;67585;44.802;10.332;2024-02-21T09:52:14;102024.56;;;14.51;nan
78121;BME280;67585;44.802;10.332;2024-02-21T09:54:41;102025.34;;;14.68;nan
78121;BME280;67585;44.802;10.332;2024-02-21T09:57:10;102022.88;;;15.11;nan
78121;BME280;67585;44.802;10.332;2024-02-21T09:59:36;102019.31;;;15.92;nan
78121;BME280;67585;44.802;10.332;2024-02-21T10:02:03;102017.66;;;16.28;nan
78121;BME280;67585;44.802;10.332;2024-02-21T10:04:30;101970.50;;;16.07;nan
78121;BME280;67585;44.802;10.332;2024-02-21T10:06:56;102002.78;;;16.41;nan
78121;BME280;67585;44.802;10.332;2024-02-21T10:11:49;102008.63;;;16.70;nan
78121;BME280;67585;44.802;10.332;2024-02-21T10:14:15;101972.81;;;16.31;nan
78121;BME280;67585;44.802;10.332;2024-02-21T10:16:41;102004.06;;;16.28;nan
78121;BME280;67585;44.802;10.332;2024-02-21T10:19:18;101984.78;;;16.35;nan
78121;BME280;67585;44.802;10.332;2024-02-21T10:21:44;101984.47;;;16.79;nan
78121;BME280;67585;44.802;10.332;2024-02-21T10:24:11;102001.00;;;16.14;nan
78121;BME280;67585;44.802;10.332;2024-02-21T10:26:37;101978.50;;;16.24;nan
78121;BME280;67585;44.802;10.332;2024-02-21T10:29:03;102000.72;;;16.16;nan
78121;BME280;67585;44.802;10.332;2024-02-21T10:31:28;102004.22;;;16.11;nan
78121;BME280;67585;44.802;10.332;2024-02-21T10:33:58;101993.16;;;16.76;nan
78121;BME280;67585;44.802;10.332;2024-02-21T10:36:24;102015.66;;;16.61;nan
78121;BME280;67585;44.802;10.332;2024-02-21T10:38:51;102004.69;;;16.45;nan
78121;BME280;67585;44.802;10.332;2024-02-21T10:41:19;102027.00;;;16.95;nan
78121;BME280;67585;44.802;10.332;2024-02-21T10:43:52;102000.31;;;16.97;nan
78121;BME280;67585;44.802;10.332;2024-02-21T10:46:20;101988.88;;;16.95;nan
78121;BME280;67585;44.802;10.332;2024-02-21T10:49:16;102022.50;;;16.74;nan
78121;BME280;67585;44.802;10.332;2024-02-21T10:51:43;101973.78;;;16.67;nan
78121;BME280;67585;44.802;10.332;2024-02-21T10:56:40;102008.75;;;16.43;nan
78121;BME280;67585;44.802;10.332;2024-02-21T10:59:07;101984.22;;;16.28;nan
78121;BME280;67585;44.802;10.332;2024-02-21T11:01:33;101991.78;;;16.73;nan
78121;BME280;67585;44.802;10.332;2024-02-21T11:04:06;101976.25;;;16.74;nan
78121;BME280;67585;44.802;10.332;2024-02-21T11:06:32;101969.03;;;17.10;nan
78121;BME280;67585;44.802;10.332;2024-02-21T11:09:03;101980.22;;;17.29;nan
78121;BME280;67585;44.802;10.332;2024-02-21T11:11:39;101944.22;;;17.01;nan
78121;BME280;67585;44.802;10.332;2024-02-21T11:14:09;101961.13;;;17.03;nan
78121;BME280;67585;44.802;10.332;2024-02-21T11:16:39;101967.72;;;17.89;nan
78121;BME280;67585;44.802;10.332;2024-02-21T11:19:21;101956.28;;;17.26;nan
78121;BME280;67585;44.802;10.332;2024-02-21T11:21:48;101964.66;;;16.99;nan
78121;BME280;67585;44.802;10.332;2024-02-21T11:24:13;101932.38;;;16.55;nan
78121;BME280;67585;44.802;10.332;2024-02-21T11:26:40;101958.72;;;17.27;nan
78121;BME280;67585;44.802;10.332;2024-02-21T11:29:07;101928.19;;;17.30;nan
78121;BME280;67585;44.802;10.332;2024-02-21T11:31:42;101933.63;;;17.00;nan
78121;BME280;67585;44.802;10.332;2024-02-21T11:34:11;101910.69;;;16.75;nan
78121;BME280;67585;44.802;10.332;2024-02-21T11:36:49;101924.28;;;16.75;nan
78121;BME280;67585;44.802;10.332;2024-02-21T11:41:44;101916.63;;;16.62;nan
78121;BME280;67585;44.802;10.332;2024-02-21T11:44:09;101888.06;;;16.59;nan
78121;BME280;67585;44.802;10.332;2024-02-21T11:46:35;101915.13;;;17.27;nan
78121;BME280;67585;44.802;10.332;2024-02-21T11:49:01;101882.47;;;17.17;nan
78121;BME280;67585;44.802;10.332;2024-02-21T11:51:28;101878.38;;;17.04;nan
78121;BME280;67585;44.802;10.332;2024-02-21T11:53:54;101903.69;;;17.56;nan
78121;BME280;67585;44.802;10.332;2024-02-21T11:56:22;101892.72;;;17.77;nan
78121;BME280;67585;44.802;10.332;2024-02-21T11:58:48;101872.03;;;16.68;nan
78121;BME280;67585;44.802;10.332;2024-02-21T12:01:14;101872.38;;;17.02;nan
78121;BME280;67585;44.802;10.332;2024-02-21T12:03:39;101861.38;;;16.51;nan
78121;BME280;67585;44.802;10.332;2024-02-21T12:06:07;101884.63;;;17.00;nan
78121;BME280;67585;44.802;10.332;2024-02-21T12:08:45;101889.53;;;17.34;nan
78121;BME280;67585;44.802;10.332;2024-02-21T12:11:23;101878.34;;;16.94;nan
78121;BME280;67585;44.802;10.332;2024-02-21T12:14:01;101867.22;;;17.21;nan
78121;BME280;67585;44.802;10.332;2024-02-21T12:16:27;101866.91;;;17.48;nan
78121;BME280;67585;44.802;10.332;2024-02-21T12:18:54;101807.00;;;17.28;nan
78121;BME280;67585;44.802;10.332;2024-02-21T12:21:24;101852.69;;;17.67;nan
78121;BME280;67585;44.802;10.332;2024-02-21T12:23:49;101832.34;;;17.34;nan
78121;BME280;67585;44.802;10.332;2024-02-21T12:26:14;101846.44;;;17.87;nan
78121;BME280;67585;44.802;10.332;2024-02-21T12:28:40;101830.06;;;17.87;nan
78121;BME280;67585;44.802;10.332;2024-02-21T12:31:05;101848.38;;;17.50;nan
78121;BME280;67585;44.802;10.332;2024-02-21T12:33:31;101835.50;;;17.71;nan
78121;BME280;67585;44.802;10.332;2024-02-21T12:35:57;101794.97;;;17.55;nan
78121;BME280;67585;44.802;10.332;2024-02-21T12:38:22;101804.06;;;17.04;nan
78121;BME280;67585;44.802;10.332;2024-02-21T12:40:48;101839.88;;;17.83;nan
78121;BME280;67585;44.802;10.332;2024-02-21T12:43:13;101789.34;;;17.00;nan
78121;BME280;67585;44.802;10.332;2024-02-21T12:45:38;101824.06;;;17.80;nan
78121;BME280;67585;44.802;10.332;2024-02-21T12:48:04;101811.00;;;17.66;nan
78121;BME280;67585;44.802;10.332;2024-02-21T12:50:30;101794.09;;;17.75;nan
78121;BME280;67585;44.802;10.332;2024-02-21T12:52:56;101788.97;;;17.63;nan
78121;BME280;67585;44.802;10.332;2024-02-21T12:55:23;101779.13;;;17.67;nan
78121;BME280;67585;44.802;10.332;2024-02-21T12:57:52;101804.28;;;17.43;nan
78121;BME280;67585;44.802;10.332;2024-02-21T13:00:17;101801.47;;;17.64;nan
78121;BME280;67585;44.802;10.332;2024-02-21T13:02:43;101805.38;;;17.32;nan
78121;BME280;67585;44.802;10.332;2024-02-21T13:05:08;101775.69;;;16.74;nan
78121;BME280;67585;44.802;10.332;2024-02-21T13:07:34;101793.97;;;16.89;nan